Time;durP1;ratioP1;P1;durP2;ratioP2;P2;SDS_P1;SDS_P2;PMS_P1;PMS_P2;Temp;Humidity;BMP_temperature;BMP_pressure;BME280_temperature;BME280_humidity;BME280_pressure;Samples;Min_cycle;Max_cycle;Signal;HPM_P1;HPM_P2
2023/03/01 00:00:08;;;;;;;3.55;2.40;;;;;;;;;;6236319;23;20026;-55
2023/03/01 00:02:36;;;;;;;;;;;;;;;;;;6237504;23;20103;-59
2023/03/01 00:05:10;;;;;;;8.05;2.72;;;;;;;;;;6235881;23;20099;-57
2023/03/01 00:07:38;;;;;;;5.13;2.53;;;;;;;;;;6236317;23;20062;-60
2023/03/01 00:10:05;;;;;;;4.45;2.40;;;;;;;;;;6237969;23;20043;-59
2023/03/01 00:12:39;;;;;;;5.25;2.47;;;;;;;;;;6236572;23;20103;-64
2023/03/01 00:15:06;;;;;;;4.13;2.30;;;;;;;;;;6236485;23;20051;-75
2023/03/01 00:17:40;;;;;;;5.15;2.17;;;;;;;;;;6234898;23;20035;-55
2023/03/01 00:20:09;;;;;;;3.78;2.38;;;;;;;;;;6234508;23;20030;-54
2023/03/01 00:22:37;;;;;;;8.50;2.35;;;;;;;;;;6232855;23;20020;-55
2023/03/01 00:25:11;;;;;;;6.53;2.70;;;;;;;;;;6235227;23;20020;-57
2023/03/01 00:27:38;;;;;;;5.45;2.40;;;;;;;;;;6233863;23;20547;-52
2023/03/01 00:30:06;;;;;;;3.55;2.20;;;;;;;;;;6236424;23;20044;-56
2023/03/01 00:33:01;;;;;;;3.95;2.35;;;;;;;;;;6237124;23;20042;-62
2023/03/01 00:35:28;;;;;;;4.75;2.63;;;;;;;;;;6236030;23;20379;-63
2023/03/01 00:38:03;;;;;;;4.28;2.50;;;;;;;;;;6235554;23;20055;-63
2023/03/01 00:40:32;;;;;;;4.13;2.70;;;;;;;;;;6236766;23;20484;-63
2023/03/01 00:42:59;;;;;;;5.60;2.50;;;;;;;;;;6235815;23;20661;-63
2023/03/01 00:45:40;;;;;;;6.22;2.70;;;;;;;;;;6235269;23;20440;-63
2023/03/01 00:48:07;;;;;;;3.95;2.60;;;;;;;;;;6237230;23;20111;-63
2023/03/01 00:50:41;;;;;;;5.15;2.72;;;;;;;;;;6235472;23;20421;-63
2023/03/01 00:53:08;;;;;;;4.50;2.60;;;;;;;;;;6236694;23;20024;-64
2023/03/01 00:55:36;;;;;;;4.90;2.50;;;;;;;;;;6236984;23;20016;-63
2023/03/01 00:58:10;;;;;;;3.92;2.55;;;;;;;;;;6236671;23;20024;-63
2023/03/01 01:00:37;;;;;;;6.53;2.83;;;;;;;;;;6237769;23;20422;-62
2023/03/01 01:03:11;;;;;;;3.97;2.40;;;;;;;;;;6235273;23;20562;-62
2023/03/01 01:05:38;;;;;;;3.03;2.38;;;;;;;;;;6235858;23;20098;-62
2023/03/01 01:08:06;;;;;;;4.97;2.70;;;;;;;;;;6236109;23;20056;-62
2023/03/01 01:10:40;;;;;;;4.80;2.75;;;;;;;;;;6234969;23;20028;-63
2023/03/01 01:13:07;;;;;;;6.55;2.75;;;;;;;;;;6237256;23;20028;-59
2023/03/01 01:15:42;;;;;;;3.53;2.30;;;;;;;;;;6236265;23;20109;-58
2023/03/01 01:18:09;;;;;;;;;;;;;;;;;;6236682;23;20020;-57
2023/03/01 01:20:37;;;;;;;9.73;2.58;;;;;;;;;;6235435;23;19919;-58
2023/03/01 01:23:11;;;;;;;4.63;2.80;;;;;;;;;;6236615;23;20030;-58
2023/03/01 01:25:38;;;;;;;4.10;2.22;;;;;;;;;;6237057;23;20023;-55
2023/03/01 01:28:13;;;;;;;6.35;2.90;;;;;;;;;;6236250;23;20020;-62
2023/03/01 01:30:40;;;;;;;5.65;2.63;;;;;;;;;;6235624;23;20579;-61
2023/03/01 01:33:07;;;;;;;6.28;2.45;;;;;;;;;;6236561;23;20063;-62
2023/03/01 01:35:41;;;;;;;5.28;2.40;;;;;;;;;;6234707;23;20099;-61
2023/03/01 01:38:09;;;;;;;4.05;2.53;;;;;;;;;;6236912;23;20127;-63
2023/03/01 01:40:49;;;;;;;4.13;2.30;;;;;;;;;;6237198;23;20452;-59
2023/03/01 01:43:22;;;;;;;5.95;2.50;;;;;;;;;;6236733;23;20059;-58
2023/03/01 01:46:23;;;;;;;7.47;2.75;;;;;;;;;;6232547;23;20136;-58
2023/03/01 01:49:00;;;;;;;3.38;2.20;;;;;;;;;;6235263;23;20027;-58
2023/03/01 01:51:38;;;;;;;8.82;2.67;;;;;;;;;;6236894;23;20024;-55
2023/03/01 01:54:17;;;;;;;4.20;2.50;;;;;;;;;;6236018;23;20090;-58
2023/03/01 01:56:55;;;;;;;5.38;2.42;;;;;;;;;;6235966;23;20055;-63
2023/03/01 01:59:24;;;;;;;7.57;2.70;;;;;;;;;;6235654;23;20115;-62
2023/03/01 02:01:59;;;;;;;6.45;2.60;;;;;;;;;;6235242;23;20247;-63
2023/03/01 02:04:27;;;;;;;4.30;2.65;;;;;;;;;;6236099;23;20020;-63
2023/03/01 02:07:03;;;;;;;6.05;2.80;;;;;;;;;;6236091;23;20099;-60
2023/03/01 02:09:31;;;;;;;5.63;2.70;;;;;;;;;;6235330;23;20374;-62
2023/03/01 02:11:59;;;;;;;8.68;2.88;;;;;;;;;;6234759;23;20583;-62
2023/03/01 02:14:32;;;;;;;5.32;3.03;;;;;;;;;;6235649;23;20476;-62
2023/03/01 02:16:59;;;;;;;6.93;3.58;;;;;;;;;;6235092;23;20107;-61
2023/03/01 02:19:33;;;;;;;8.07;3.85;;;;;;;;;;6234966;23;20067;-61
2023/03/01 02:22:06;;;;;;;8.52;3.05;;;;;;;;;;6236754;23;20027;-62
2023/03/01 02:24:55;;;;;;;4.80;2.80;;;;;;;;;;6236871;23;20070;-62
2023/03/01 02:27:34;;;;;;;5.28;2.70;;;;;;;;;;6236496;23;20078;-62
2023/03/01 02:30:21;;;;;;;5.20;2.47;;;;;;;;;;6236579;23;20066;-62
2023/03/01 02:33:02;;;;;;;4.53;2.17;;;;;;;;;;6234397;23;20024;-62
2023/03/01 02:35:38;;;;;;;5.57;3.20;;;;;;;;;;6233986;23;20020;-62
2023/03/01 02:38:08;;;;;;;3.90;2.70;;;;;;;;;;6234579;23;20054;-56
2023/03/01 02:40:37;;;;;;;5.63;3.00;;;;;;;;;;6236558;23;20024;-58
2023/03/01 02:43:12;;;;;;;6.47;2.90;;;;;;;;;;6236111;23;20031;-56
2023/03/01 02:45:44;;;;;;;10.40;2.90;;;;;;;;;;6233407;23;20028;-59
2023/03/01 02:48:24;;;;;;;5.18;2.90;;;;;;;;;;6235470;23;20091;-51
2023/03/01 02:51:17;;;;;;;5.85;2.70;;;;;;;;;;6234186;23;20106;-53
2023/03/01 02:54:10;;;;;;;5.35;2.78;;;;;;;;;;6234275;23;20027;-54
2023/03/01 02:56:38;;;;;;;8.25;3.03;;;;;;;;;;6235065;23;20653;-54
2023/03/01 02:59:12;;;;;;;4.35;2.63;;;;;;;;;;6235490;23;20119;-52
2023/03/01 03:01:39;;;;;;;9.75;2.83;;;;;;;;;;6236127;23;20016;-54
2023/03/01 03:04:07;;;;;;;4.55;2.42;;;;;;;;;;6234531;23;20094;-62
2023/03/01 03:06:41;;;;;;;6.60;2.40;;;;;;;;;;6235284;23;20834;-61
2023/03/01 03:09:08;;;;;;;7.97;2.55;;;;;;;;;;6234784;23;20487;-62
2023/03/01 03:11:43;;;;;;;5.30;2.65;;;;;;;;;;6233830;23;20031;-62
2023/03/01 03:14:13;;;;;;;;;;;;;;;;;;6236213;23;20090;-63
2023/03/01 03:16:50;;;;;;;4.90;2.53;;;;;;;;;;6236428;23;20018;-60
2023/03/01 03:19:23;;;;;;;3.15;2.33;;;;;;;;;;6235216;23;20028;-59
2023/03/01 03:21:50;;;;;;;5.88;2.80;;;;;;;;;;6234974;23;20099;-73
2023/03/01 03:24:24;;;;;;;4.35;2.40;;;;;;;;;;6235991;23;20108;-74
2023/03/01 03:26:52;;;;;;;5.50;2.90;;;;;;;;;;6234027;23;20024;-76
2023/03/01 03:29:19;;;;;;;5.60;2.72;;;;;;;;;;6236434;23;20139;-74
2023/03/01 03:31:52;;;;;;;6.50;2.83;;;;;;;;;;6237261;23;20107;-56
2023/03/01 03:34:19;;;;;;;;;;;;;;;;;;6237185;23;20345;-60
2023/03/01 03:36:59;;;;;;;4.75;2.25;;;;;;;;;;6237801;23;19919;-59
2023/03/01 03:39:27;;;;;;;5.25;2.65;;;;;;;;;;6235849;23;20503;-60
2023/03/01 03:42:00;;;;;;;6.90;2.63;;;;;;;;;;6235816;23;20039;-59
2023/03/01 03:44:41;;;;;;;6.43;2.67;;;;;;;;;;6235540;23;20024;-59
2023/03/01 03:47:22;;;;;;;4.45;2.67;;;;;;;;;;6237719;23;20020;-60
2023/03/01 03:49:49;;;;;;;3.85;2.30;;;;;;;;;;6238362;23;20020;-61
2023/03/01 03:52:23;;;;;;;4.63;2.42;;;;;;;;;;6236027;23;20095;-61
2023/03/01 03:54:57;;;;;;;4.38;2.55;;;;;;;;;;6237087;23;20026;-62
2023/03/01 03:57:24;;;;;;;4.63;2.33;;;;;;;;;;6237092;23;20026;-61
2023/03/01 03:59:58;;;;;;;4.38;2.10;;;;;;;;;;6236981;23;20024;-48
2023/03/01 04:02:26;;;;;;;3.78;2.47;;;;;;;;;;6237032;23;20034;-59
2023/03/01 04:04:53;;;;;;;5.75;2.35;;;;;;;;;;6236033;23;20499;-55
2023/03/01 04:07:27;;;;;;;3.70;2.30;;;;;;;;;;6237608;23;20020;-57
2023/03/01 04:09:54;;;;;;;6.88;2.67;;;;;;;;;;6237001;23;20031;-55
2023/03/01 04:12:28;;;;;;;7.20;2.75;;;;;;;;;;6234369;23;20507;-55
2023/03/01 04:14:56;;;;;;;6.57;2.55;;;;;;;;;;6236571;23;20059;-54
2023/03/01 04:17:23;;;;;;;5.20;2.65;;;;;;;;;;6237121;23;20116;-55
2023/03/01 04:19:56;;;;;;;5.03;2.80;;;;;;;;;;6238092;23;20066;-60
2023/03/01 04:22:29;;;;;;;7.25;2.70;;;;;;;;;;6236129;23;20034;-60
2023/03/01 04:25:05;;;;;;;4.68;2.20;;;;;;;;;;6235269;23;20020;-59
2023/03/01 04:27:36;;;;;;;4.60;2.50;;;;;;;;;;6237356;23;20100;-59
2023/03/01 04:30:10;;;;;;;;;;;;;;;;;;6236941;23;20016;-49
2023/03/01 04:32:38;;;;;;;3.45;2.30;;;;;;;;;;6236390;23;19954;-57
2023/03/01 04:35:05;;;;;;;;;;;;;;;;;;6238742;23;20022;-53
2023/03/01 04:37:41;;;;;;;5.65;2.40;;;;;;;;;;6236883;23;19920;-52
2023/03/01 04:40:16;;;;;;;4.18;2.40;;;;;;;;;;6235044;23;20107;-56
2023/03/01 04:42:49;;;;;;;6.35;2.45;;;;;;;;;;6236207;23;20099;-56
2023/03/01 04:45:23;;;;;;;5.07;2.15;;;;;;;;;;6235456;23;20024;-54
2023/03/01 04:47:58;;;;;;;3.33;2.38;;;;;;;;;;6237281;23;20024;-61
2023/03/01 04:50:32;;;;;;;4.43;2.50;;;;;;;;;;6236395;23;20024;-61
2023/03/01 04:53:00;;;;;;;4.50;2.50;;;;;;;;;;6236155;23;20099;-61
2023/03/01 04:55:27;;;;;;;3.55;2.42;;;;;;;;;;6235834;23;20024;-61
2023/03/01 04:58:01;;;;;;;5.88;2.33;;;;;;;;;;6236953;23;20026;-61
2023/03/01 05:00:28;;;;;;;3.72;2.00;;;;;;;;;;6235563;23;20499;-59
2023/03/01 05:03:01;;;;;;;3.50;2.60;;;;;;;;;;6234917;23;20051;-60
2023/03/01 05:05:35;;;;;;;3.95;2.25;;;;;;;;;;6236283;23;20030;-58
2023/03/01 05:08:05;;;;;;;3.92;2.45;;;;;;;;;;6236883;23;20030;-59
2023/03/01 05:10:39;;;;;;;5.03;2.42;;;;;;;;;;6235717;23;20024;-60
2023/03/01 05:13:06;;;;;;;3.78;2.28;;;;;;;;;;6236500;23;20103;-59
2023/03/01 05:15:49;;;;;;;3.83;2.20;;;;;;;;;;6237059;23;20104;-60
2023/03/01 05:18:30;;;;;;;5.22;2.38;;;;;;;;;;6234455;23;20346;-59
2023/03/01 05:21:03;;;;;;;6.35;2.35;;;;;;;;;;6234310;23;20035;-59
2023/03/01 05:23:38;;;;;;;5.88;2.20;;;;;;;;;;6236572;23;20024;-60
2023/03/01 05:26:06;;;;;;;3.58;2.53;;;;;;;;;;6235049;23;20024;-59
2023/03/01 05:28:48;;;;;;;3.75;1.90;;;;;;;;;;6234841;23;20024;-59
2023/03/01 05:31:22;;;;;;;3.60;1.90;;;;;;;;;;6235638;23;20107;-60
2023/03/01 05:33:49;;;;;;;;;;;;;;;;;;6235605;23;20026;-60
2023/03/01 05:36:23;;;;;;;5.25;2.22;;;;;;;;;;6232730;23;19995;-60
2023/03/01 05:38:50;;;;;;;3.50;2.38;;;;;;;;;;6234930;23;20383;-59
2023/03/01 05:41:18;;;;;;;5.00;2.30;;;;;;;;;;6235298;23;20060;-60
2023/03/01 05:43:51;;;;;;;8.02;2.83;;;;;;;;;;6235267;23;20566;-59
2023/03/01 05:46:25;;;;;;;6.18;2.60;;;;;;;;;;6232144;23;20047;-60
2023/03/01 05:48:59;;;;;;;6.70;2.50;;;;;;;;;;6234851;23;20052;-59
2023/03/01 05:51:26;;;;;;;4.43;2.20;;;;;;;;;;6233974;23;20131;-59
2023/03/01 05:53:54;;;;;;;4.72;2.58;;;;;;;;;;6234722;23;20024;-60
2023/03/01 05:56:27;;;;;;;4.00;2.13;;;;;;;;;;6236275;23;20020;-49
2023/03/01 05:58:55;;;;;;;6.25;2.42;;;;;;;;;;6234843;23;20476;-52
2023/03/01 06:01:29;;;;;;;6.35;2.22;;;;;;;;;;6234858;23;20131;-55
2023/03/01 06:03:56;;;;;;;5.88;2.25;;;;;;;;;;6234086;23;20055;-55
2023/03/01 06:06:23;;;;;;;;;;;;;;;;;;6233610;23;20502;-53
2023/03/01 06:08:58;;;;;;;3.17;2.40;;;;;;;;;;6232649;23;20488;-55
2023/03/01 06:11:25;;;;;;;;;;;;;;;;;;6237242;23;20043;-54
2023/03/01 06:13:58;;;;;;;5.85;2.22;;;;;;;;;;6236952;23;19954;-61
2023/03/01 06:16:25;;;;;;;3.53;2.30;;;;;;;;;;6235444;23;20485;-62
2023/03/01 06:18:53;;;;;;;3.78;2.35;;;;;;;;;;6236919;23;20024;-61
2023/03/01 06:21:26;;;;;;;3.50;2.05;;;;;;;;;;6235063;23;20024;-60
2023/03/01 06:23:53;;;;;;;5.00;2.08;;;;;;;;;;6235711;23;20028;-60
2023/03/01 06:26:27;;;;;;;6.45;2.10;;;;;;;;;;6234636;23;20024;-60
2023/03/01 06:28:55;;;;;;;3.10;1.90;;;;;;;;;;6235966;23;20459;-59
2023/03/01 06:31:22;;;;;;;2.88;2.00;;;;;;;;;;6235382;23;20052;-59
2023/03/01 06:33:56;;;;;;;5.13;2.40;;;;;;;;;;6236036;23;20090;-57
2023/03/01 06:36:23;;;;;;;6.03;2.20;;;;;;;;;;6235984;23;20111;-58
2023/03/01 06:38:58;;;;;;;4.35;2.53;;;;;;;;;;6235765;23;20024;-60
2023/03/01 06:41:25;;;;;;;7.55;2.40;;;;;;;;;;6237503;23;20072;-46
2023/03/01 06:43:54;;;;;;;4.40;2.20;;;;;;;;;;6235531;23;20024;-51
2023/03/01 06:46:34;;;;;;;6.45;2.47;;;;;;;;;;6233911;23;20027;-49
2023/03/01 06:49:04;;;;;;;7.25;2.42;;;;;;;;;;6235495;23;20098;-47
2023/03/01 06:51:38;;;;;;;4.50;2.10;;;;;;;;;;6236169;23;20017;-56
2023/03/01 06:54:05;;;;;;;3.88;1.92;;;;;;;;;;6235358;23;20251;-60
2023/03/01 06:56:33;;;;;;;4.70;2.30;;;;;;;;;;6237347;23;20103;-59
2023/03/01 06:59:06;;;;;;;3.35;2.13;;;;;;;;;;6236776;23;20479;-60
2023/03/01 07:01:33;;;;;;;4.70;2.08;;;;;;;;;;6235258;23;20081;-60
2023/03/01 07:04:08;;;;;;;4.40;2.50;;;;;;;;;;6237029;23;20020;-59
2023/03/01 07:06:35;;;;;;;4.30;2.10;;;;;;;;;;6237564;23;20450;-60
2023/03/01 07:09:02;;;;;;;;;;;;;;;;;;6237666;23;20020;-60
2023/03/01 07:11:36;;;;;;;3.85;2.03;;;;;;;;;;6226951;23;19915;-60
2023/03/01 07:14:03;;;;;;;;;;;;;;;;;;6239189;23;20060;-60
2023/03/01 07:16:37;;;;;;;6.68;1.73;;;;;;;;;;6224423;23;19943;-60
2023/03/01 07:19:05;;;;;;;3.65;1.90;;;;;;;;;;6237782;23;20047;-61
2023/03/01 07:21:32;;;;;;;;;;;;;;;;;;6237124;23;20058;-71
2023/03/01 07:24:07;;;;;;;6.60;2.30;;;;;;;;;;6237570;23;20323;-51
2023/03/01 07:26:34;;;;;;;5.75;2.13;;;;;;;;;;6239105;23;20023;-52
2023/03/01 07:29:10;;;;;;;2.92;2.03;;;;;;;;;;6238050;23;20024;-50
2023/03/01 07:31:37;;;;;;;7.40;2.10;;;;;;;;;;6236783;23;20546;-51
2023/03/01 07:34:04;;;;;;;7.80;2.97;;;;;;;;;;6237559;23;20510;-50
2023/03/01 07:36:39;;;;;;;4.70;2.13;;;;;;;;;;6236938;23;20022;-53
2023/03/01 07:39:06;;;;;;;2.40;1.80;;;;;;;;;;6238052;23;20027;-62
2023/03/01 07:41:41;;;;;;;5.88;2.50;;;;;;;;;;6238139;23;20110;-63
2023/03/01 07:44:09;;;;;;;;;;;;;;;;;;6237953;23;20521;-63
2023/03/01 07:46:36;;;;;;;5.45;3.05;;;;;;;;;;6235370;23;19986;-63
2023/03/01 07:49:16;;;;;;;4.07;2.58;;;;;;;;;;6237454;23;20063;-63
2023/03/01 07:51:43;;;;;;;5.20;2.30;;;;;;;;;;6236024;23;20066;-63
2023/03/01 07:54:17;;;;;;;7.43;2.25;;;;;;;;;;6237491;23;20389;-62
2023/03/01 07:56:44;;;;;;;;;;;;;;;;;;6238152;23;20475;-64
2023/03/01 07:59:12;;;;;;;10.68;2.58;;;;;;;;;;6236822;23;19922;-64
2023/03/01 08:01:45;;;;;;;4.25;1.98;;;;;;;;;;6236267;23;20060;-63
2023/03/01 08:04:12;;;;;;;6.50;2.42;;;;;;;;;;6237666;23;20028;-63
2023/03/01 08:06:46;;;;;;;4.90;2.30;;;;;;;;;;6237078;23;20438;-62
2023/03/01 08:09:13;;;;;;;3.17;2.25;;;;;;;;;;6237809;23;20356;-62
2023/03/01 08:11:41;;;;;;;8.23;2.72;;;;;;;;;;6237311;23;20020;-63
2023/03/01 08:14:15;;;;;;;3.67;2.15;;;;;;;;;;6236890;23;20052;-63
2023/03/01 08:16:42;;;;;;;5.68;2.33;;;;;;;;;;6237175;23;20023;-50
2023/03/01 08:19:10;;;;;;;5.13;2.42;;;;;;;;;;6238095;23;20020;-56
2023/03/01 08:21:44;;;;;;;6.68;3.58;;;;;;;;;;6234668;23;20360;-57
2023/03/01 08:24:11;;;;;;;11.30;3.88;;;;;;;;;;6237309;23;20016;-55
2023/03/01 08:26:45;;;;;;;8.45;3.80;;;;;;;;;;6237386;23;20039;-56
2023/03/01 08:29:12;;;;;;;9.40;4.18;;;;;;;;;;6236011;23;20089;-55
2023/03/01 08:31:40;;;;;;;6.43;3.67;;;;;;;;;;6237123;23;20111;-58
2023/03/01 08:34:15;;;;;;;8.43;3.58;;;;;;;;;;6238057;23;20072;-56
2023/03/01 08:36:44;;;;;;;5.63;3.10;;;;;;;;;;6235947;23;20103;-59
2023/03/01 08:39:19;;;;;;;11.75;3.45;;;;;;;;;;6236143;23;20077;-59
2023/03/01 08:41:46;;;;;;;5.00;2.78;;;;;;;;;;6236992;23;20534;-58
2023/03/01 08:44:20;;;;;;;10.45;3.53;;;;;;;;;;6235503;23;20043;-56
2023/03/01 08:47:02;;;;;;;6.65;2.90;;;;;;;;;;6233422;23;20577;-51
2023/03/01 08:49:35;;;;;;;10.15;3.78;;;;;;;;;;6237358;23;20016;-64
2023/03/01 08:52:03;;;;;;;9.02;3.88;;;;;;;;;;6236972;23;20070;-61
2023/03/01 08:54:30;;;;;;;9.45;4.60;;;;;;;;;;6236953;23;20051;-62
2023/03/01 08:57:04;;;;;;;7.78;3.95;;;;;;;;;;6236098;23;20034;-61
2023/03/01 08:59:36;;;;;;;6.68;2.80;;;;;;;;;;6237223;23;20058;-62
2023/03/01 09:02:15;;;;;;;8.18;2.95;;;;;;;;;;6235931;23;20024;-62
2023/03/01 09:04:42;;;;;;;4.85;2.67;;;;;;;;;;6237495;23;20046;-53
2023/03/01 09:07:09;;;;;;;4.80;1.80;;;;;;;;;;6235568;23;20427;-53
2023/03/01 09:09:43;;;;;;;3.03;1.35;;;;;;;;;;6235911;23;20103;-52
2023/03/01 09:12:11;;;;;;;1.77;1.02;;;;;;;;;;6236169;23;20457;-52
2023/03/01 09:14:38;;;;;;;2.20;1.30;;;;;;;;;;6237574;23;20110;-55
2023/03/01 09:17:12;;;;;;;2.55;1.27;;;;;;;;;;6236147;23;20038;-65
2023/03/01 09:19:46;;;;;;;3.35;1.30;;;;;;;;;;6237070;23;20020;-64
2023/03/01 09:22:20;;;;;;;2.13;1.25;;;;;;;;;;6236467;23;20042;-65
2023/03/01 09:24:47;;;;;;;3.38;1.55;;;;;;;;;;6235498;23;20447;-65
2023/03/01 09:27:21;;;;;;;1.50;1.00;;;;;;;;;;6235229;23;20526;-66
2023/03/01 09:29:48;;;;;;;3.92;1.38;;;;;;;;;;6235167;23;20020;-65
2023/03/01 09:32:22;;;;;;;3.53;1.15;;;;;;;;;;6236177;23;20035;-62
2023/03/01 09:35:04;;;;;;;4.70;1.30;;;;;;;;;;6236579;23;20016;-63
2023/03/01 09:37:42;;;;;;;1.23;0.90;;;;;;;;;;6235232;23;20107;-62
2023/03/01 09:40:15;;;;;;;3.22;1.30;;;;;;;;;;6234917;23;20585;-62
2023/03/01 09:42:52;;;;;;;3.42;0.88;;;;;;;;;;6236950;23;20094;-65
2023/03/01 09:45:24;;;;;;;2.20;1.10;;;;;;;;;;6232829;23;20103;-60
2023/03/01 09:48:06;;;;;;;4.05;1.05;;;;;;;;;;6235182;23;20391;-59
2023/03/01 09:50:36;;;;;;;1.63;0.93;;;;;;;;;;6234028;23;20609;-60
2023/03/01 09:53:20;;;;;;;2.97;1.25;;;;;;;;;;6236562;23;20087;-60
2023/03/01 09:55:54;;;;;;;1.40;1.08;;;;;;;;;;6235836;23;20505;-61
2023/03/01 09:58:39;;;;;;;1.65;0.95;;;;;;;;;;6237164;23;20022;-61
2023/03/01 10:01:31;;;;;;;2.70;1.10;;;;;;;;;;6235900;23;20375;-57
2023/03/01 10:04:04;;;;;;;1.60;1.00;;;;;;;;;;6195392;23;20028;-51
2023/03/01 10:06:31;;;;;;;2.25;1.17;;;;;;;;;;6233780;23;20099;-54
2023/03/01 10:09:06;;;;;;;3.42;1.30;;;;;;;;;;6236469;23;20522;-55
2023/03/01 10:11:42;;;;;;;2.97;1.20;;;;;;;;;;6235550;23;20411;-66
2023/03/01 10:14:18;;;;;;;4.93;1.02;;;;;;;;;;6235394;23;20051;-57
2023/03/01 10:16:58;;;;;;;5.45;1.13;;;;;;;;;;6235698;23;20086;-59
2023/03/01 10:19:29;;;;;;;4.43;1.30;;;;;;;;;;6235921;23;20032;-57
2023/03/01 10:22:08;;;;;;;3.80;1.50;;;;;;;;;;6236078;23;20434;-58
2023/03/01 10:24:36;;;;;;;1.52;0.85;;;;;;;;;;6236705;23;20020;-57
2023/03/01 10:27:38;;;;;;;3.13;1.13;;;;;;;;;;6236689;23;20110;-57
2023/03/01 10:30:19;;;;;;;1.40;1.00;;;;;;;;;;6218030;23;20020;-50
2023/03/01 10:32:54;;;;;;;1.25;0.82;;;;;;;;;;6237370;23;20071;-47
2023/03/01 10:35:23;;;;;;;1.88;1.08;;;;;;;;;;6236015;23;20123;-49
2023/03/01 10:37:59;;;;;;;1.98;1.10;;;;;;;;;;6237529;23;20043;-49
2023/03/01 10:40:34;;;;;;;2.30;1.00;;;;;;;;;;6238527;23;20471;-72
2023/03/01 10:43:05;;;;;;;1.35;1.20;;;;;;;;;;6236968;23;20016;-59
2023/03/01 10:45:46;;;;;;;2.00;0.75;;;;;;;;;;6233252;23;20116;-58
2023/03/01 10:48:24;;;;;;;4.20;1.13;;;;;;;;;;6238577;23;20567;-59
2023/03/01 10:51:00;;;;;;;1.52;0.75;;;;;;;;;;6236972;23;20059;-58
2023/03/01 10:53:40;;;;;;;1.98;1.20;;;;;;;;;;6238063;23;20024;-59
2023/03/01 10:56:15;;;;;;;3.50;1.08;;;;;;;;;;6238390;23;20103;-72
2023/03/01 10:58:57;;;;;;;2.63;1.13;;;;;;;;;;6237599;23;20107;-71
2023/03/01 11:01:35;;;;;;;0.85;0.80;;;;;;;;;;6238267;23;20106;-72
2023/03/01 11:04:13;;;;;;;1.48;0.90;;;;;;;;;;6237041;23;20074;-70
2023/03/01 11:06:58;;;;;;;1.75;0.82;;;;;;;;;;6236780;23;20502;-65
2023/03/01 11:09:27;;;;;;;3.78;0.70;;;;;;;;;;6239305;23;20024;-49
2023/03/01 11:12:00;;;;;;;2.33;0.90;;;;;;;;;;6238012;23;20026;-65
2023/03/01 11:14:40;;;;;;;1.40;0.85;;;;;;;;;;6238208;23;20082;-65
2023/03/01 11:17:17;;;;;;;1.38;0.82;;;;;;;;;;6238077;23;20031;-65
2023/03/01 11:20:00;;;;;;;2.60;1.00;;;;;;;;;;6237455;23;20082;-65
2023/03/01 11:22:35;;;;;;;2.97;0.90;;;;;;;;;;6236490;23;20090;-65
2023/03/01 11:25:03;;;;;;;3.65;1.15;;;;;;;;;;6238273;23;20434;-62
2023/03/01 11:27:42;;;;;;;2.15;0.90;;;;;;;;;;6236591;23;20024;-62
2023/03/01 11:30:20;;;;;;;2.63;0.90;;;;;;;;;;6238415;23;20026;-61
2023/03/01 11:32:49;;;;;;;4.20;1.20;;;;;;;;;;6237323;23;20024;-62
2023/03/01 11:35:26;;;;;;;2.90;1.27;;;;;;;;;;6237629;23;20055;-60
2023/03/01 11:38:02;;;;;;;1.88;1.13;;;;;;;;;;6236412;23;20494;-72
2023/03/01 11:40:42;;;;;;;1.08;0.65;;;;;;;;;;6238160;23;20091;-58
2023/03/01 11:43:28;;;;;;;1.35;0.80;;;;;;;;;;6237715;23;20086;-57
2023/03/01 11:46:08;;;;;;;4.57;0.75;;;;;;;;;;6234774;23;20099;-58
2023/03/01 11:48:49;;;;;;;5.60;1.70;;;;;;;;;;6237202;23;20429;-58
2023/03/01 11:51:41;;;;;;;2.65;1.02;;;;;;;;;;6236823;23;20469;-57
2023/03/01 11:54:11;;;;;;;1.95;1.08;;;;;;;;;;6239281;23;20378;-49
2023/03/01 11:56:47;;;;;;;7.55;0.88;;;;;;;;;;6237060;23;20431;-50
2023/03/01 11:59:50;;;;;;;2.28;0.98;;;;;;;;;;6238089;23;20438;-47
2023/03/01 12:02:27;;;;;;;1.92;1.08;;;;;;;;;;6143711;23;20079;-47
2023/03/01 12:05:00;;;;;;;2.90;0.98;;;;;;;;;;6224814;23;20110;-58
2023/03/01 12:07:34;;;;;;;1.55;0.88;;;;;;;;;;6237485;23;20055;-49
2023/03/01 12:10:11;;;;;;;1.65;1.00;;;;;;;;;;6237081;23;20048;-53
2023/03/01 12:13:03;;;;;;;2.00;0.95;;;;;;;;;;6236329;23;20052;-51
2023/03/01 12:15:39;;;;;;;3.00;0.98;;;;;;;;;;6238173;23;20091;-50
2023/03/01 12:18:18;;;;;;;4.55;1.40;;;;;;;;;;6237691;23;20502;-50
2023/03/01 12:20:54;;;;;;;1.42;0.77;;;;;;;;;;6236391;23;20027;-47
2023/03/01 12:23:34;;;;;;;2.05;0.68;;;;;;;;;;6237742;23;20028;-65
2023/03/01 12:26:02;;;;;;;1.23;0.55;;;;;;;;;;6237225;23;20091;-65
2023/03/01 12:28:52;;;;;;;1.65;0.52;;;;;;;;;;6237051;23;20039;-65
2023/03/01 12:31:49;;;;;;;1.02;0.43;;;;;;;;;;6236433;23;20024;-65
2023/03/01 12:34:30;;;;;;;3.35;0.55;;;;;;;;;;6221952;23;20442;-61
2023/03/01 12:37:11;;;;;;;2.38;0.50;;;;;;;;;;6236534;23;20063;-60
2023/03/01 12:39:51;;;;;;;3.65;0.65;;;;;;;;;;6237271;23;20020;-60
2023/03/01 12:42:27;;;;;;;1.40;0.60;;;;;;;;;;6237427;23;20093;-61
2023/03/01 12:45:12;;;;;;;1.38;0.77;;;;;;;;;;6235671;23;20020;-60
2023/03/01 12:47:56;;;;;;;0.75;0.40;;;;;;;;;;6233778;23;20487;-60
2023/03/01 12:50:48;;;;;;;1.85;0.80;;;;;;;;;;6238375;23;20058;-59
2023/03/01 12:53:29;;;;;;;0.85;0.50;;;;;;;;;;6237606;23;20067;-59
2023/03/01 12:56:06;;;;;;;1.95;0.80;;;;;;;;;;6236500;23;20020;-60
2023/03/01 12:58:36;;;;;;;2.35;0.80;;;;;;;;;;6237371;23;20024;-59
2023/03/01 13:01:23;;;;;;;1.08;0.60;;;;;;;;;;6235866;23;20051;-61
2023/03/01 13:03:57;;;;;;;1.05;0.40;;;;;;;;;;6235899;23;20141;-65
2023/03/01 13:06:44;;;;;;;1.15;0.60;;;;;;;;;;6237607;23;20043;-64
2023/03/01 13:09:21;;;;;;;1.55;0.57;;;;;;;;;;6237655;23;20514;-64
2023/03/01 13:12:01;;;;;;;3.17;0.68;;;;;;;;;;6235851;23;20515;-65
2023/03/01 13:14:46;;;;;;;1.48;0.80;;;;;;;;;;6234723;23;20410;-64
2023/03/01 13:17:33;;;;;;;2.35;0.90;;;;;;;;;;6236620;23;20590;-65
2023/03/01 13:20:12;;;;;;;3.00;0.95;;;;;;;;;;6236887;23;20016;-72
2023/03/01 13:22:39;;;;;;;1.48;0.30;;;;;;;;;;6235638;23;20024;-72
2023/03/01 13:25:21;;;;;;;2.92;0.55;;;;;;;;;;6236111;23;20043;-71
2023/03/01 13:28:13;;;;;;;2.17;0.52;;;;;;;;;;6234513;23;20455;-72
2023/03/01 13:30:47;;;;;;;3.35;0.60;;;;;;;;;;6237372;23;20048;-64
2023/03/01 13:49:19;;;;;;;1.00;0.30;;;;;;;;;;5922201;22;8327228;-81
2023/03/01 13:51:55;;;;;;;0.93;0.40;;;;;;;;;;6279999;22;20125;-81
2023/03/01 13:54:28;;;;;;;2.20;0.40;;;;;;;;;;6279274;22;20527;-80
2023/03/01 13:57:02;;;;;;;0.77;0.50;;;;;;;;;;6278610;22;20387;-80
2023/03/01 13:59:30;;;;;;;2.38;0.45;;;;;;;;;;6278345;22;20654;-80
2023/03/01 14:02:12;;;;;;;3.20;0.47;;;;;;;;;;6277479;22;20508;-80
2023/03/01 14:04:40;;;;;;;1.60;0.50;;;;;;;;;;6278219;22;20019;-80
2023/03/01 14:07:19;;;;;;;0.43;0.40;;;;;;;;;;6278631;22;20631;-80
2023/03/01 14:09:51;;;;;;;1.13;0.75;;;;;;;;;;6278931;22;20031;-81
2023/03/01 14:12:43;;;;;;;3.05;0.35;;;;;;;;;;6279547;22;20054;-80
2023/03/01 14:15:39;;;;;;;1.10;0.50;;;;;;;;;;6279058;22;20054;-80
2023/03/01 14:18:30;;;;;;;1.95;0.60;;;;;;;;;;6262737;22;20027;-81
2023/03/01 14:20:57;;;;;;;1.08;0.43;;;;;;;;;;6279123;22;20047;-81
2023/03/01 14:23:34;;;;;;;3.83;0.60;;;;;;;;;;6277337;22;20098;-80
2023/03/01 14:26:01;;;;;;;0.73;0.63;;;;;;;;;;6275682;22;20047;-81
2023/03/01 14:28:29;;;;;;;4.68;0.70;;;;;;;;;;6277172;22;20055;-81
2023/03/01 14:31:03;;;;;;;2.63;0.50;;;;;;;;;;6278949;22;20066;-81
2023/03/01 14:33:41;;;;;;;2.03;0.60;;;;;;;;;;6278535;22;20027;-81
2023/03/01 14:36:15;;;;;;;2.25;0.70;;;;;;;;;;6277960;22;20016;-81
2023/03/01 14:38:43;;;;;;;2.63;0.75;;;;;;;;;;6278507;22;20094;-81
2023/03/01 14:41:21;;;;;;;2.35;0.70;;;;;;;;;;6277931;22;20019;-81
2023/03/01 14:43:55;;;;;;;2.28;0.60;;;;;;;;;;6274427;22;20051;-81
2023/03/01 14:46:29;;;;;;;3.63;0.50;;;;;;;;;;6245481;22;20023;-81
2023/03/01 14:48:59;;;;;;;3.92;0.60;;;;;;;;;;6271660;22;20107;-80
2023/03/01 14:51:37;;;;;;;0.85;0.50;;;;;;;;;;6271645;22;20020;-81
2023/03/01 14:54:06;;;;;;;0.70;0.52;;;;;;;;;;6270907;22;20889;-81
2023/03/01 14:56:44;;;;;;;4.18;0.70;;;;;;;;;;6271717;22;20098;-80
2023/03/01 14:59:14;;;;;;;0.90;0.40;;;;;;;;;;6271365;22;20031;-81
2023/03/01 15:01:48;;;;;;;0.70;0.65;;;;;;;;;;6269782;22;20020;-81
2023/03/01 15:04:15;;;;;;;1.95;0.60;;;;;;;;;;6270971;22;20042;-81
2023/03/01 15:06:51;;;;;;;0.60;0.43;;;;;;;;;;6271447;22;20536;-81
2023/03/01 15:09:19;;;;;;;0.38;0.35;;;;;;;;;;6272170;22;20099;-81
2023/03/01 15:11:53;;;;;;;1.27;0.30;;;;;;;;;;6271009;22;20397;-80
2023/03/01 15:14:40;;;;;;;3.33;0.43;;;;;;;;;;6271535;22;20015;-81
2023/03/01 15:17:32;;;;;;;2.42;0.47;;;;;;;;;;6249662;22;20027;-81
2023/03/01 15:20:00;;;;;;;1.40;0.50;;;;;;;;;;6271281;22;20020;-81
2023/03/01 15:22:35;;;;;;;0.43;0.43;;;;;;;;;;6270485;22;20399;-81
2023/03/01 15:25:03;;;;;;;1.55;0.63;;;;;;;;;;6271861;22;20468;-81
2023/03/01 15:27:30;;;;;;;1.20;0.52;;;;;;;;;;6271484;22;20461;-81
2023/03/01 15:30:04;;;;;;;0.85;0.60;;;;;;;;;;6272283;22;20081;-81
2023/03/01 15:32:33;;;;;;;0.68;0.40;;;;;;;;;;6270761;22;20047;-80
2023/03/01 15:35:26;;;;;;;0.95;0.60;;;;;;;;;;6246418;22;20633;-81
2023/03/01 15:37:53;;;;;;;1.17;0.43;;;;;;;;;;6243162;22;20341;-80
2023/03/01 15:40:34;;;;;;;0.90;0.55;;;;;;;;;;6270355;22;20083;-80
2023/03/01 15:43:02;;;;;;;3.05;0.73;;;;;;;;;;6270809;22;20090;-80